Main page

Airports :

Dortmund, Germany

Dortmund Airport

latitude: 51-31N, longitude: 007-37E, elevation: 127 m

Current weather observation

The report was made 34 minutes ago, at 11:20 UTC
Wind 3 kt from variable directions
Temperature 8°C
Humidity 87%
Pressure 1013 hPa
Visibility 10 km or more
Few clouds at a height of 400 ft

METAR: EDLW 231120Z VRB03KT 9999 FEW004 08/06 Q1013

Time: 13:54 (11:54 UTC)


The report was made 54 minutes ago, at 11:00 UTC
Forecast valid from 23 at 12 UTC to 24 at 12 UTC
Wind 4 kt from the East/Northeast
Visibility: 8000 m
Scattered clouds at a height of 1200 ft
from 23 at 15 UTC to 23 at 18 UTC
Visibility: 3500 m
Probability 30% :
from 23 at 18 UTC to 24 at 06 UTC
Visibility: 0500 m
Broken clouds at a height of 100 ft
from 24 at 06 UTC to 24 at 09 UTC
Visibility 10 km or more

TAF: EDLW 231100Z 2312/2412 07004KT 8000 SCT012 BECMG 2315/2318 3500 BR PROB30 TEMPO 2318/2406 0500 FG BKN001 BECMG 2406/2409 9999


Weather observations and forecasts of more than 4000 airports (METAR and TAF reports).

The available stations are represented by yellow and red dots on the map.

Hover mouse over dot to see the name of the station.

Then click to see weather observations and forecasts.

To change the map : click on the green buttons with a black cross to zoom in, on the green button with a dash to zoom out, or on the green arrows for adjacent maps.